createdAt,value
2022-08-03T00:01:24.312Z,101273.34
2022-08-03T00:11:45.879Z,101276.69
2022-08-03T00:22:07.444Z,101278.41
2022-08-03T00:32:29.008Z,101281.53
2022-08-03T00:42:52.234Z,101270.59
2022-08-03T00:53:14.730Z,101284.94
2022-08-03T01:03:36.460Z,101268.63
2022-08-03T01:14:18.781Z,101267.91
2022-08-03T01:25:14.890Z,101267.91
2022-08-03T01:35:45.398Z,101262.78
2022-08-03T01:46:08.646Z,101260.44
2022-08-03T01:56:32.413Z,101255.44
2022-08-03T02:07:02.019Z,101240.44
2022-08-03T02:17:39.796Z,101236.50
2022-08-03T02:28:16.284Z,101232.94
2022-08-03T02:38:41.540Z,101230.47
2022-08-03T02:49:41.038Z,101225.84
2022-08-03T02:59:46.754Z,101229.00
2022-08-03T03:10:09.698Z,101221.75
2022-08-03T03:20:32.830Z,101221.00
2022-08-03T03:30:54.643Z,101227.56
2022-08-03T03:41:16.401Z,101220.38
2022-08-03T03:51:37.930Z,101208.72
2022-08-03T04:01:59.945Z,101207.97
2022-08-03T04:12:23.344Z,101209.81
2022-08-03T04:22:48.118Z,101202.94
2022-08-03T04:33:10.373Z,101211.47
2022-08-03T04:43:34.565Z,101207.06
2022-08-03T04:53:56.123Z,101220.06
2022-08-03T05:04:18.361Z,101217.13
2022-08-03T05:14:40.218Z,101231.50
2022-08-03T05:25:02.317Z,101236.72
2022-08-03T05:36:01.295Z,101228.06
2022-08-03T05:46:12.049Z,101248.84
2022-08-03T05:56:34.137Z,101246.03
2022-08-03T06:06:55.697Z,101242.78
2022-08-03T06:17:17.282Z,101236.03
2022-08-03T06:27:40.196Z,101246.53
2022-08-03T06:38:01.832Z,101255.94
2022-08-03T06:48:23.389Z,101263.25
2022-08-03T06:58:45.082Z,101264.88
2022-08-03T07:09:06.763Z,101261.69
2022-08-03T07:19:28.402Z,101268.53
2022-08-03T07:29:50.035Z,101272.72
2022-08-03T07:40:11.702Z,101274.53
2022-08-03T07:50:33.250Z,101282.25
2022-08-03T08:00:54.900Z,101276.47
2022-08-03T08:11:16.566Z,101278.75
2022-08-03T08:21:53.783Z,101279.94
2022-08-03T08:32:19.832Z,101281.56
2022-08-03T08:42:57.565Z,101275.78
2022-08-03T08:53:26.752Z,101277.25
2022-08-03T09:03:49.383Z,101280.63
2022-08-03T09:14:11.425Z,101281.75
2022-08-03T09:25:22.679Z,101269.09
2022-08-03T09:35:59.705Z,101260.31
2022-08-03T09:46:21.264Z,101257.13
2022-08-03T09:56:44.555Z,101261.47
2022-08-03T10:07:10.934Z,101256.97
2022-08-03T10:17:36.168Z,101263.88
2022-08-03T10:28:04.480Z,101266.88
2022-08-03T10:38:47.930Z,101248.81
2022-08-03T10:49:13.346Z,101260.56
2022-08-03T10:59:47.182Z,101252.34
2022-08-03T11:10:31.919Z,101243.66
2022-08-03T11:21:00.958Z,101240.59
2022-08-03T11:31:46.831Z,101237.84
2022-08-03T11:42:22.165Z,101235.94
2022-08-03T11:52:43.861Z,101232.38
2022-08-03T12:03:12.315Z,101226.81
2022-08-03T12:14:44.122Z,101231.59
2022-08-03T12:24:41.385Z,101224.06
2022-08-03T12:35:05.026Z,101219.06
2022-08-03T12:45:32.002Z,101214.09
2022-08-03T12:56:04.979Z,101214.75
2022-08-03T13:06:27.443Z,101222.44
2022-08-03T13:16:49.712Z,101217.28
2022-08-03T13:28:02.087Z,101218.84
2022-08-03T13:37:53.851Z,101202.34
2022-08-03T13:48:15.405Z,101197.31
2022-08-03T13:58:57.593Z,101195.50
2022-08-03T14:09:19.266Z,101192.81
2022-08-03T14:19:52.781Z,101187.03
2022-08-03T14:30:15.521Z,101188.00
2022-08-03T14:40:37.149Z,101177.56
2022-08-03T14:50:58.970Z,101179.19
2022-08-03T15:02:04.649Z,101170.66
2022-08-03T15:12:02.077Z,101164.34
2022-08-03T15:22:25.193Z,101166.69
2022-08-03T15:32:56.106Z,101160.16
2022-08-03T15:43:17.651Z,101156.63
2022-08-03T15:53:39.540Z,101152.53
2022-08-03T16:04:01.086Z,101151.59
2022-08-03T16:14:32.385Z,101149.13
2022-08-03T16:24:57.663Z,101145.97
2022-08-03T16:35:21.294Z,101156.06
2022-08-03T16:45:43.156Z,101151.63
2022-08-03T16:56:09.930Z,101149.00
2022-08-03T17:06:35.734Z,101147.84
2022-08-03T17:17:01.532Z,101150.09
2022-08-03T17:28:48.658Z,101149.69
2022-08-03T17:38:15.773Z,101157.31
2022-08-03T17:48:41.530Z,101168.25
2022-08-03T17:59:08.512Z,101192.84
2022-08-03T18:10:05.690Z,101211.34
2022-08-03T18:20:31.296Z,101230.94
2022-08-03T18:30:56.947Z,101232.75
2022-08-03T18:41:33.672Z,101248.00
2022-08-03T18:52:16.684Z,101256.59
2022-08-03T19:02:51.001Z,101244.91
2022-08-03T19:13:41.437Z,101273.84
2022-08-03T19:24:10.099Z,101276.66
2022-08-03T19:34:33.191Z,101275.44
2022-08-03T19:45:13.970Z,101290.28
2022-08-03T19:55:46.391Z,101290.56
2022-08-03T20:06:12.511Z,101291.59
2022-08-03T20:16:38.559Z,101292.34
2022-08-03T20:27:01.426Z,101278.09
2022-08-03T20:37:23.082Z,101280.47
2022-08-03T20:47:50.581Z,101281.44
2022-08-03T20:58:14.406Z,101269.53
2022-08-03T21:08:39.057Z,101273.22
2022-08-03T21:19:10.006Z,101260.94
2022-08-03T21:29:32.642Z,101260.25
2022-08-03T21:39:55.813Z,101255.91
2022-08-03T21:50:17.778Z,101247.63
2022-08-03T22:00:43.330Z,101242.94
2022-08-03T22:11:05.767Z,101234.66
2022-08-03T22:21:36.128Z,101229.66
2022-08-03T22:31:59.468Z,101224.69
2022-08-03T22:42:22.966Z,101228.31
2022-08-03T22:52:44.693Z,101221.28
2022-08-03T23:03:07.230Z,101229.28
2022-08-03T23:13:32.600Z,101218.63
2022-08-03T23:23:54.298Z,101214.16
2022-08-03T23:34:35.940Z,101205.16
2022-08-03T23:45:01.093Z,101196.84
2022-08-03T23:55:39.557Z,101197.06
